CYVR/YVR METAR and TAF weather

Enter ICAO airport designator
Station Type Date Time Source
CYVR METAR 2019/06/26 18:00 UTC NOAA

CYVR 261800Z 24007KT 30SM FEW050TCU FEW055 FEW120 SCT140 SCT240 19/12 A2990 RMK TCU1CU1AC1AC1CC1 CU TR CC TR SLP126 DENSITY ALT 600FT


Station Type Date Time Source
CYVR Decoded METAR 2019/06/26 18:00 UTC NOAA

Vancouver International Air-Port, B. C., Canada (CYVR) 49-11N 123-10W 2M
Jun 26, 2019 - 02:00 PM EDT / 2019.06.26 1800 UTC
Wind: from the WSW (240 degrees) at 8 MPH (7 KT):0
Visibility: 30 mile(s):0
Sky conditions: partly cloudy
Weather: Towering cumulus clouds observed
Temperature: 66 F (19 C)
Dew Point: 53 F (12 C)
Relative Humidity: 63%
Pressure (altimeter): 29.9 in. Hg (1012 hPa)
ob: CYVR 261800Z 24007KT 30SM FEW050TCU FEW055 FEW120 SCT140 SCT240 19/12 A2990 RMK TCU1CU1AC1AC1CC1 CU TR CC TR SLP126 DENSITY ALT 600FT
cycle: 18

Station Type Date Time Source
CYVR TAF 2019/06/26 18:39 UTC NOAA

TAF CYVR 261738Z 2618/2724 16005KT P6SM SCT040 BKN120
BECMG 2620/2622 28010KT SCT080
FM270600 10010KT P6SM BKN060
TEMPO 2706/2711 P6SM -SHRA
FM271100 10010KT P6SM -SHRA BKN040
TEMPO 2711/2715 5SM -SHRA BR BKN015 OVC030
FM271500 12012KT 5SM -RA BR BKN008 OVC015
FM272000 14010KT P6SM -SHRA BKN020
RMK NXT FCST BY 262100Z

Example: see airport list